createdAt,value
2019-01-23T00:01:44.454Z,81.47
2019-01-23T00:06:51.582Z,82.30
2019-01-23T00:11:56.850Z,82.63
2019-01-23T00:17:02.058Z,83.30
2019-01-23T00:22:07.206Z,80.50
2019-01-23T00:27:12.332Z,83.33
2019-01-23T00:32:17.634Z,81.20
2019-01-23T00:37:23.554Z,80.27
2019-01-23T00:42:29.461Z,81.87
2019-01-23T00:47:34.594Z,77.17
2019-01-23T00:52:39.730Z,78.10
2019-01-23T00:57:44.914Z,88.20
2019-01-23T01:02:50.057Z,79.87
2019-01-23T01:07:55.374Z,76.67
2019-01-23T01:13:00.469Z,81.23
2019-01-23T01:18:05.962Z,76.00
2019-01-23T01:23:11.261Z,83.47
2019-01-23T01:28:19.578Z,73.90
2019-01-23T01:33:24.778Z,70.87
2019-01-23T01:38:29.866Z,75.07
2019-01-23T01:43:38.180Z,74.93
2019-01-23T01:48:43.732Z,76.13
2019-01-23T01:53:48.838Z,75.30
2019-01-23T01:58:53.992Z,75.57
2019-01-23T02:04:00.176Z,76.03
2019-01-23T02:09:08.630Z,78.20
2019-01-23T02:14:14.743Z,76.83
2019-01-23T02:19:19.948Z,83.00
2019-01-23T02:24:25.146Z,82.20
2019-01-23T02:29:30.268Z,83.57
2019-01-23T02:34:35.672Z,84.93
2019-01-23T02:39:40.970Z,80.13
2019-01-23T02:44:46.179Z,82.00
2019-01-23T02:49:51.591Z,85.73
2019-01-23T02:54:56.641Z,89.03
2019-01-23T03:00:01.666Z,90.87
2019-01-23T03:05:10.548Z,87.97
2019-01-23T03:10:18.059Z,72.23
2019-01-23T03:15:23.123Z,83.13
2019-01-23T03:20:30.685Z,88.40
2019-01-23T03:25:36.993Z,91.13
2019-01-23T03:30:44.117Z,90.97
2019-01-23T03:35:49.725Z,88.33
2019-01-23T03:40:57.524Z,84.87
2019-01-23T03:46:03.119Z,91.57
2019-01-23T03:51:09.007Z,86.40
2019-01-23T03:56:14.895Z,89.73
2019-01-23T04:01:20.683Z,90.73
2019-01-23T04:06:27.003Z,91.97
2019-01-23T04:11:32.813Z,88.70
2019-01-23T04:16:38.994Z,91.17
2019-01-23T04:21:55.179Z,85.57
2019-01-23T04:26:58.508Z,83.50
2019-01-23T04:32:04.947Z,93.53
2019-01-23T04:37:24.888Z,88.67
2019-01-23T04:42:45.903Z,86.67
2019-01-23T04:47:52.035Z,95.83
2019-01-23T04:53:17.339Z,101.20
2019-01-23T04:58:23.232Z,89.73
2019-01-23T05:03:44.448Z,92.07
2019-01-23T05:09:01.904Z,92.80
2019-01-23T05:14:12.282Z,90.97
2019-01-23T05:19:23.091Z,95.83
2019-01-23T05:24:30.535Z,94.27
2019-01-23T05:29:55.062Z,91.37
2019-01-23T05:35:02.995Z,95.40
2019-01-23T05:40:28.365Z,90.73
2019-01-23T05:45:33.790Z,91.03
2019-01-23T05:50:39.174Z,95.20
2019-01-23T05:55:49.338Z,92.10
2019-01-23T06:01:08.066Z,87.83
2019-01-23T06:06:29.776Z,89.23
2019-01-23T06:11:45.992Z,90.33
2019-01-23T06:16:51.699Z,90.80
2019-01-23T06:22:00.927Z,90.87
2019-01-23T06:27:19.474Z,85.90
2019-01-23T06:32:32.631Z,87.27
2019-01-23T06:37:38.139Z,86.53
2019-01-23T06:42:50.678Z,93.47
2019-01-23T06:48:02.880Z,88.87
2019-01-23T06:53:14.043Z,87.83
2019-01-23T06:58:15.715Z,89.40
2019-01-23T07:03:21.157Z,96.57
2019-01-23T07:08:28.577Z,91.83
2019-01-23T07:13:42.189Z,96.60
2019-01-23T07:18:47.492Z,95.97
2019-01-23T07:23:52.738Z,100.23
2019-01-23T07:28:58.049Z,102.63
2019-01-23T07:34:07.793Z,104.70
2019-01-23T07:39:14.587Z,104.87
2019-01-23T07:44:20.735Z,106.93
2019-01-23T07:49:25.913Z,104.97
2019-01-23T07:54:36.124Z,108.73
2019-01-23T07:59:41.392Z,108.47
2019-01-23T08:04:46.599Z,96.93
2019-01-23T08:09:51.749Z,101.80
2019-01-23T08:15:00.184Z,114.33
2019-01-23T08:20:07.445Z,104.97
2019-01-23T08:25:17.035Z,110.93
2019-01-23T08:30:25.494Z,97.13
2019-01-23T08:35:40.250Z,105.63
2019-01-23T08:40:45.534Z,107.03
2019-01-23T08:45:50.858Z,107.60
2019-01-23T08:50:56.313Z,101.07
2019-01-23T08:56:02.101Z,103.53
2019-01-23T09:01:08.001Z,102.43
2019-01-23T09:06:13.431Z,104.33
2019-01-23T09:11:18.753Z,97.77
2019-01-23T09:16:24.419Z,103.03
2019-01-23T09:21:32.475Z,102.87
2019-01-23T09:26:42.137Z,99.13
2019-01-23T09:32:47.433Z,99.23
2019-01-23T09:38:18.919Z,89.90
2019-01-23T09:43:52.474Z,90.23
2019-01-23T09:49:37.678Z,90.73
2019-01-23T09:54:54.247Z,90.90
2019-01-23T10:00:07.351Z,97.73
2019-01-23T10:05:13.736Z,90.30
2019-01-23T10:10:19.397Z,89.87
2019-01-23T10:16:13.032Z,88.17
2019-01-23T10:21:18.321Z,88.90
2019-01-23T10:26:23.634Z,83.53
2019-01-23T10:31:29.929Z,86.20
2019-01-23T10:36:37.205Z,79.80
2019-01-23T10:41:52.593Z,85.77
2019-01-23T10:46:58.996Z,80.67
2019-01-23T10:52:05.593Z,89.00
2019-01-23T10:57:11.464Z,82.30
2019-01-23T11:02:16.731Z,76.17
2019-01-23T11:07:27.113Z,77.70
2019-01-23T11:12:32.937Z,77.47
2019-01-23T11:17:38.238Z,80.37
2019-01-23T11:22:52.459Z,74.23
2019-01-23T11:27:59.596Z,75.37
2019-01-23T11:33:05.021Z,65.67
2019-01-23T11:38:10.712Z,69.40
2019-01-23T11:43:15.804Z,70.73
2019-01-23T11:48:20.921Z,64.37
2019-01-23T11:53:28.649Z,62.90
2019-01-23T11:58:35.452Z,74.33
2019-01-23T12:03:40.691Z,73.13
2019-01-23T12:08:46.297Z,75.57
2019-01-23T12:13:51.381Z,75.27
2019-01-23T12:18:56.382Z,68.33
2019-01-23T12:24:03.141Z,70.40
2019-01-23T12:29:08.196Z,74.43
2019-01-23T12:34:13.292Z,90.40
2019-01-23T12:39:22.249Z,84.87
2019-01-23T12:44:27.505Z,82.70
2019-01-23T12:49:36.896Z,83.67
2019-01-23T12:54:42.569Z,88.13
2019-01-23T12:59:48.395Z,92.80
2019-01-23T13:04:53.611Z,98.47
2019-01-23T13:10:00.999Z,100.67
2019-01-23T13:15:10.967Z,101.63
2019-01-23T13:20:21.707Z,97.03
2019-01-23T13:25:28.922Z,106.93
2019-01-23T13:30:35.413Z,107.90
2019-01-23T13:35:43.387Z,111.73
2019-01-23T13:40:48.657Z,121.27
2019-01-23T13:45:58.285Z,120.77
2019-01-23T13:51:04.577Z,120.00
2019-01-23T13:56:11.019Z,124.50
2019-01-23T14:01:19.707Z,124.70
2019-01-23T14:06:25.119Z,123.63
2019-01-23T14:11:41.846Z,130.07
2019-01-23T14:16:48.533Z,122.87
2019-01-23T14:21:59.540Z,129.30
2019-01-23T14:27:16.899Z,121.20
2019-01-23T14:32:22.099Z,123.13
2019-01-23T14:37:29.305Z,125.63
2019-01-23T14:42:39.799Z,129.60
2019-01-23T14:47:49.625Z,126.93
2019-01-23T14:52:55.635Z,125.80
2019-01-23T14:58:04.788Z,128.10
2019-01-23T15:03:24.081Z,144.63
2019-01-23T15:08:29.553Z,148.30
2019-01-23T15:13:40.080Z,143.17
2019-01-23T15:18:53.470Z,139.13
2019-01-23T15:24:18.019Z,148.40
2019-01-23T15:29:37.955Z,159.20
2019-01-23T15:34:47.291Z,142.30
2019-01-23T15:39:55.452Z,169.00
2019-01-23T15:45:01.318Z,168.70
2019-01-23T15:50:33.445Z,176.20
2019-01-23T15:56:09.097Z,171.87
2019-01-23T16:01:25.315Z,163.23
2019-01-23T16:06:32.625Z,171.27
2019-01-23T16:11:58.829Z,174.57
2019-01-23T16:17:23.536Z,187.00
2019-01-23T16:22:28.983Z,181.13
2019-01-23T16:27:35.782Z,178.73
2019-01-23T16:32:45.593Z,183.57
2019-01-23T16:38:11.584Z,179.30
2019-01-23T16:43:44.299Z,179.87
2019-01-23T16:48:56.357Z,162.07
2019-01-23T16:54:06.203Z,162.37
2019-01-23T16:59:15.954Z,143.27
2019-01-23T17:04:21.600Z,141.63
2019-01-23T17:09:28.402Z,144.30
2019-01-23T17:14:37.121Z,130.17
2019-01-23T17:19:53.652Z,124.17
2019-01-23T17:25:07.731Z,130.60
2019-01-23T17:30:27.358Z,116.93
2019-01-23T17:35:49.906Z,115.53
2019-01-23T17:41:01.426Z,116.97
2019-01-23T17:46:11.209Z,100.47
2019-01-23T17:51:22.582Z,107.67
2019-01-23T17:56:31.306Z,123.63
2019-01-23T18:01:36.905Z,105.53
2019-01-23T18:07:06.798Z,95.70
2019-01-23T18:12:15.025Z,94.43
2019-01-23T18:17:23.123Z,102.77
2019-01-23T18:22:32.236Z,96.27
2019-01-23T18:27:38.207Z,96.60
2019-01-23T18:32:44.566Z,99.47
2019-01-23T18:38:35.583Z,91.13
2019-01-23T18:44:39.793Z,92.23
2019-01-23T18:50:37.276Z,94.13
2019-01-23T18:56:01.425Z,95.83
2019-01-23T19:01:09.341Z,95.23
2019-01-23T19:06:26.229Z,104.70
2019-01-23T19:17:11.987Z,102.43
2019-01-23T19:22:21.945Z,105.17
2019-01-23T19:27:28.431Z,89.77
2019-01-23T19:32:49.425Z,102.90
2019-01-23T19:38:02.413Z,97.23
2019-01-23T19:43:08.339Z,88.27
2019-01-23T19:48:14.052Z,81.70
2019-01-23T19:53:19.503Z,79.97
2019-01-23T19:58:24.798Z,87.33
2019-01-23T20:03:30.014Z,85.30
2019-01-23T20:08:52.347Z,85.40
2019-01-23T20:14:16.139Z,89.10
2019-01-23T20:19:21.547Z,84.97
2019-01-23T20:24:28.061Z,83.10
2019-01-23T20:29:34.495Z,80.40
2019-01-23T20:34:43.081Z,84.17
2019-01-23T20:39:53.869Z,77.20
2019-01-23T20:44:59.097Z,82.80
2019-01-23T20:50:06.269Z,74.47
2019-01-23T20:55:11.396Z,80.93
2019-01-23T21:01:05.988Z,82.70
2019-01-23T21:12:39.651Z,83.33
2019-01-23T21:17:54.747Z,80.03
2019-01-23T21:23:07.356Z,76.93
2019-01-23T21:28:35.202Z,77.37
2019-01-23T21:34:07.927Z,83.43
2019-01-23T21:39:52.627Z,78.77
2019-01-23T21:45:02.441Z,76.50
2019-01-23T21:50:10.209Z,76.70
2019-01-23T21:55:21.479Z,80.40
2019-01-23T22:00:58.940Z,74.03
2019-01-23T22:06:04.723Z,83.00
2019-01-23T22:11:09.835Z,82.37
2019-01-23T22:16:17.702Z,82.30
2019-01-23T22:21:22.828Z,86.30
2019-01-23T22:26:29.384Z,85.63
2019-01-23T22:31:35.664Z,86.53
2019-01-23T22:36:40.736Z,87.43
2019-01-23T22:41:48.994Z,90.70
2019-01-23T22:46:54.095Z,88.53
2019-01-23T22:51:59.290Z,83.83
2019-01-23T22:57:04.352Z,86.97
2019-01-23T23:02:09.483Z,83.33
2019-01-23T23:07:14.548Z,85.90
2019-01-23T23:12:19.764Z,81.97
2019-01-23T23:17:24.816Z,83.50
2019-01-23T23:22:29.911Z,79.57
2019-01-23T23:27:39.354Z,79.20
2019-01-23T23:32:41.764Z,82.47
2019-01-23T23:37:46.935Z,82.03
2019-01-23T23:42:52.105Z,86.87
2019-01-23T23:47:57.384Z,82.77
2019-01-23T23:53:02.398Z,86.00
2019-01-23T23:58:08.593Z,81.47
